• Join FlightAware (Why Join?)
  • Login
  • US Flag 
11:16PM EDT


 

Airport Tracker/Info


-or-


 

Live Flight TrackerFlight Track Log ✈ N415JA ✈ 28-Oct-2013 ✈ KSTL - KFXE

Flight Track Log - Related Links

Times and Time Zones

All times are in EDT time to prevent confusion due to time zone crossing. See the N415JA flight status page for this flight to view local times or setup timezone preferences in your user account.

Time Position Orientation Groundspeed Altitude Reporting Facility
EDT Latitude Longitude Course Direction KTS MPH feet Rate Location/Type
12:14PM 38.7167 -90.3000 126° Southeast 217 250 3,300  Level Gateway (St. Louis) TRACON
12:16PM 38.6581 -90.1958 126° Southeast 249 287 7,800 3,120 Climbing Kansas City Center
12:17PM 38.6106 -90.1214 129° Southeast 258 297 10,900 2,520 Climbing Kansas City Center
12:18PM 38.5472 -90.0281 131° Southeast 299 344 13,100 2,400 Climbing Kansas City Center
12:19PM 38.4781 -89.9308 132° Southeast 341 392 15,900 2,520 Climbing Kansas City Center
12:20PM 38.3967 -89.8150 132° Southeast 361 415 18,400 2,160 Climbing Kansas City Center
12:21PM 38.3300 -89.7114 129° Southeast 374 430 20,400 1,800 Climbing Kansas City Center
12:22PM 38.2544 -89.6058 132° Southeast 399 459 22,200 1,680 Climbing Kansas City Center
12:23PM 38.1786 -89.4956 131° Southeast 413 475 23,900 1,740 Climbing Kansas City Center
12:24PM 38.0892 -89.3658 131° Southeast 426 490 25,900 1,680 Climbing Kansas City Center
12:25PM 38.0086 -89.2514 132° Southeast 433 498 27,400 1,440 Climbing Kansas City Center
12:26PM 37.9208 -89.1236 131° Southeast 447 514 29,000 1,500 Climbing Kansas City Center
12:27PM 37.8397 -89.0053 131° Southeast 455 524 30,500 1,200 Climbing Kansas City Center
12:28PM 37.7503 -88.8775 131° Southeast 460 529 31,600 960 Climbing Kansas City Center
12:29PM 37.6606 -88.7547 133° Southeast 470 541 32,500 840 Climbing Kansas City Center
12:30PM 37.5778 -88.6383 132° Southeast 472 543 33,400 1,080 Climbing Kansas City Center
12:31PM 37.4811 -88.5039 132° Southeast 480 552 34,800 720 Climbing Kansas City Center
12:32PM 37.3897 -88.3761 132° Southeast 486 559 35,000 720 Climbing Kansas City Center
12:33PM 37.2978 -88.2486 132° Southeast 488 562 36,400 1,560 Climbing Kansas City Center
12:34PM 37.1914 -88.1028 132° Southeast 480 552 38,300 1,380 Climbing Kansas City Center
12:35PM 37.1089 -87.9894 132° Southeast 458 527 39,300 840 Climbing Kansas City Center
12:36PM 37.0278 -87.8789 133° Southeast 440 506 40,100 600 Climbing Kansas City Center
12:37PM 36.9481 -87.7694 132° Southeast 430 495 40,600 360 Climbing Kansas City Center
12:38PM 36.8519 -87.6397 133° Southeast 435 501 41,000 180 Climbing Memphis Center
12:39PM 36.7725 -87.5311 132° Southeast 435 501 41,000  Level Memphis Center
12:40PM 36.6800 -87.4100 134° Southeast 440 506 41,000  Level Memphis Center
12:41PM 36.5939 -87.2944 133° Southeast 440 506 41,000  Level Memphis Center
12:42PM 36.5056 -87.1764 133° Southeast 440 506 41,000  Level Memphis Center
12:43PM 36.4011 -87.0878 146° Southeast 446 513 41,000  Level Memphis Center
12:44PM 36.3039 -87.0400 158° South 454 522 41,000  Level Memphis Center
12:45PM 36.1539 -86.9664 158° South 467 537 41,000  Level Memphis Center
12:46PM 36.0353 -86.9047 157° South 473 544 41,000  Level Memphis Center
12:47PM 35.9128 -86.8431 158° South 473 544 41,000  Level Memphis Center
12:48PM 35.7922 -86.7844 158° South 473 544 41,000  Level Memphis Center
12:50PM 35.5917 -86.6844 158° South 468 539 41,000  Level Atlanta Center
12:51PM 35.4658 -86.6244 159° South 474 545 41,000  Level Atlanta Center
12:52PM 35.3378 -86.5592 157° South 467 537 41,000  Level Atlanta Center
12:53PM 35.2139 -86.4969 158° South 467 537 41,000  Level Atlanta Center
12:54PM 35.0900 -86.4375 159° South 472 543 41,000  Level Atlanta Center
12:55PM 34.9678 -86.3783 158° South 472 543 41,000  Level Atlanta Center
12:56PM 34.8439 -86.3192 159° South 472 543 41,000  Level Atlanta Center
12:57PM 34.7197 -86.2600 159° South 472 543 41,000  Level Atlanta Center
12:58PM 34.5933 -86.2014 159° South 477 549 41,000  Level Atlanta Center
12:59PM 34.4942 -86.1533 158° South 483 556 41,000  Level Atlanta Center
01:00PM 34.3575 -86.0894 159° South 483 556 41,000  Level Atlanta Center
01:01PM 34.2311 -86.0286 158° South 483 556 41,000  Level Atlanta Center
01:02PM 34.1047 -85.9706 159° South 483 556 41,000  Level Atlanta Center
01:03PM 33.9783 -85.9100 158° South 483 556 41,000  Level Atlanta Center
01:04PM 33.8519 -85.8522 159° South 483 556 41,000  Level Atlanta Center
01:05PM 33.7169 -85.7944 160° South 483 556 41,000  Level Atlanta Center
01:06PM 33.5906 -85.7344 158° South 478 550 41,000  Level Atlanta Center
01:07PM 33.4642 -85.6747 158° South 489 563 41,000  Level Atlanta Center
01:08PM 33.3375 -85.6203 160° South 483 556 41,000  Level Atlanta Center
01:09PM 33.2108 -85.5608 159° South 483 556 41,000  Level Atlanta Center
01:10PM 33.0947 -85.5067 159° South 490 564 41,000  Level Atlanta Center
01:11PM 32.9722 -85.4503 159° South 481 554 41,000  Level Atlanta Center
01:12PM 32.8414 -85.3911 159° South 488 562 41,000  Level Atlanta Center
01:13PM 32.7147 -85.3325 159° South 488 562 41,000  Level Atlanta Center
01:14PM 32.5878 -85.2764 160° South 488 562 41,000  Level Atlanta Center
01:15PM 32.4611 -85.2206 160° South 488 562 41,000  Level Atlanta Center
01:16PM 32.3364 -85.1622 158° South 488 562 41,000  Level Atlanta Center
01:19PM 32.0378 -85.0272 159° South 505 581 41,000  Level Jacksonville Center
01:20PM 31.9136 -84.9728 160° South 497 572 41,000  Level Jacksonville Center
01:21PM 31.7850 -84.9139 159° South 492 566 41,000  Level Jacksonville Center
01:22PM 31.6586 -84.8597 160° South 486 559 41,000  Level Jacksonville Center
01:23PM 31.5342 -84.7986 157° South 486 559 41,000  Level Jacksonville Center
01:24PM 31.4122 -84.7208 151° Southeast 486 559 41,000  Level Jacksonville Center
01:25PM 31.2942 -84.6431 151° Southeast 491 565 41,000  Level Jacksonville Center
01:26PM 31.1764 -84.5631 150° Southeast 491 565 41,000  Level Jacksonville Center
01:27PM 31.0561 -84.4883 152° Southeast 491 565 41,000  Level Jacksonville Center
01:28PM 30.9361 -84.4064 150° Southeast 496 571 41,000  Level Jacksonville Center
01:29PM 30.8181 -84.3294 151° Southeast 496 571 41,000  Level Jacksonville Center
01:30PM 30.6997 -84.2528 151° Southeast 496 571 41,000  Level Jacksonville Center
01:31PM 30.5794 -84.1714 150° Southeast 496 571 41,000  Level Jacksonville Center
01:32PM 30.4633 -84.0953 151° Southeast 490 564 41,000  Level Jacksonville Center
01:33PM 30.3450 -84.0192 151° Southeast 490 564 41,000  Level Jacksonville Center
01:34PM 30.2267 -83.9456 152° Southeast 490 564 41,000  Level Jacksonville Center
01:35PM 30.1083 -83.8675 150° Southeast 490 564 41,000  Level Jacksonville Center
01:36PM 29.9897 -83.7919 151° Southeast 490 564 41,000  Level Jacksonville Center
01:37PM 29.8692 -83.7142 151° Southeast 490 564 41,000  Level Jacksonville Center
01:38PM 29.7508 -83.6367 150° Southeast 495 570 41,000  Level Jacksonville Center
01:39PM 29.6322 -83.5617 151° Southeast 495 570 41,000  Level Jacksonville Center
01:40PM 29.5136 -83.4869 151° Southeast 495 570 41,000  Level Jacksonville Center
01:41PM 29.3950 -83.4122 151° Southeast 495 570 41,000  Level Jacksonville Center
01:42PM 29.2761 -83.3353 151° Southeast 495 570 41,000  Level Jacksonville Center
01:43PM 29.1575 -83.2611 151° Southeast 495 570 41,000  Level Jacksonville Center
01:44PM 29.0386 -83.1869 151° Southeast 490 564 41,000  Level Jacksonville Center
01:45PM 28.9219 -83.1131 151° Southeast 490 564 41,000  Level Jacksonville Center
01:46PM 28.8050 -83.0394 151° Southeast 490 564 41,000  Level Jacksonville Center
01:47PM 28.6861 -82.9636 151° Southeast 484 557 41,000  Level Jacksonville Center
01:48PM 28.5694 -82.8925 152° Southeast 478 550 41,000  Level Jacksonville Center
01:49PM 28.4525 -82.8194 151° Southeast 478 550 41,000  Level Jacksonville Center
01:50PM 28.3336 -82.7486 152° Southeast 478 550 41,000  Level Jacksonville Center
01:51PM 28.1431 -82.6269 151° Southeast 490 564 41,000  Level Miami Center
01:52PM 28.0228 -82.5550 152° Southeast 490 564 41,000 -120 Level Miami Center
01:53PM 27.9022 -82.4950 156° South 484 557 40,800 -1,020 Descending Miami Center
01:54PM 27.7808 -82.4492 162° South 471 542 39,000 -1,860 Descending Miami Center
01:55PM 27.6575 -82.4033 162° South 460 529 37,100 -1,920 Descending Miami Center
01:56PM 27.5483 -82.3628 162° South 454 522 35,200 -1,920 Descending Miami Center
01:57PM 27.4208 -82.3169 162° South 466 536 33,300 -2,100 Descending Miami Center
01:58PM 27.2808 -82.2636 161° South 478 550 31,100 -2,100 Descending Miami Center
01:59PM 27.1531 -82.2181 162° South 478 550 29,200 -1,920 Descending Miami Center
02:00PM 27.0422 -82.1708 159° South 478 550 27,300 -1,860 Descending Miami Center
02:01PM 26.9303 -82.0889 147° Southeast 478 550 25,500 -1,920 Descending Miami Center
02:02PM 26.8406 -81.9733 131° Southeast 478 550 23,500 -2,040 Descending Miami Center
02:03PM 26.7611 -81.8581 128° Southeast 478 550 21,500 -1,800 Descending Miami Center
02:04PM 26.6831 -81.7572 131° Southeast 456 525 19,900 -1,260 Descending Miami Center
02:05PM 26.6092 -81.6567 129° Southeast 434 499 19,000 -960 Descending Miami Center
02:06PM 26.5294 -81.5444 128° Southeast 416 479 18,000 -1,440 Descending Miami Center
02:07PM 26.4575 -81.4442 129° Southeast 416 479 16,200 -1,860 Descending Miami Center
02:08PM 26.3833 -81.3439 130° Southeast 411 473 14,300 -1,800 Descending Miami Center
02:09PM 26.3131 -81.2508 130° Southeast 398 458 12,700 -1,560 Descending Miami Center
02:10PM 26.2547 -81.1792 132° Southeast 373 429 11,500 -1,500 Descending Miami Center
02:10PM 26.2489 -81.1628 112° Southeast 388 447 11,200 -1,260 Descending Miami Center
02:11PM 26.1944 -81.0961 132° Southeast 294 338 10,100 -1,200 Descending Miami Center
02:11PM 26.1925 -81.0867 103° East 342 394 10,000 -1,140 Descending Miami Center
02:12PM 26.1422 -81.0247 132° Southeast 290 334 9,000 -1,140 Descending Miami Center
02:12PM 26.1422 -81.0200 90° East 296 341 8,900 -1,020 Descending Miami Center
02:13PM 26.1028 -80.9447 120° Southeast 290 334 8,000 -900 Descending Miami Center
02:13PM 26.1047 -80.9425 46° Northeast 284 327 8,000 -1,200 Level Miami Center
02:14PM 26.1069 -80.8686 88° East 284 327 6,900 -1,320 Descending Miami Center
02:14PM 26.1114 -80.8572 67° East 259 298 6,700 -1,980 Descending Miami Center
02:15PM 26.1342 -80.7861 70° East 274 315 4,900 -2,040 Descending Miami Center
02:15PM 26.1386 -80.7769 62° Northeast 254 292 4,700 -1,320 Descending Miami Center
02:16PM 26.1469 -80.7008 83° East 254 292 3,500 -1,200 Descending Miami Center
02:16PM 26.1447 -80.7008 180° South 245 282 3,500 -540 Level Miami Center
02:17PM 26.1550 -80.6272 81° East 249 287 3,000 -540 Descending Miami Center
02:17PM 26.1508 -80.6247 152° Southeast 239 275 3,000  Level Miami Center
02:18PM 26.1608 -80.5672 79° East 223 257 3,000 60 Level Miami Center
02:18PM 26.1586 -80.5647 135° Southeast 171 197 3,100 -540 Climbing Miami Center
02:19PM 26.1667 -80.5025 82° East 211 243 2,500 -420 Descending Miami Center
02:20PM 26.1703 -80.4403 86° East 202 232 2,300 -120 Descending Miami Center
02:21PM 26.1758 -80.3756 85° East 182 209 2,300 -60 Level Miami Center
02:22PM 26.1814 -80.3178 84° East 182 209 2,200 -360 Descending Miami Center
02:23PM 26.1867 -80.2739 82° East 151 174 1,600 -720 Descending Miami Center
02:24PM 26.1919 -80.2278 83° East 127 146 800 -840 Descending Miami Center
02:26PM 26.1833 -80.1667 336° Northwest  Level FlightAware Approximate
02:33PM 26.1973 -80.1707 336° Northwest  Level Estimated
02:34PM 26.1973 -80.1707 336° Northwest  Level Estimated